sensor_id;sensor_type;location;lat;lon;timestamp;temperature;humidity
19968;DHT22;10145;49.152;9.282;2023-06-26T00:02:12;17.60;99.90
19968;DHT22;10145;49.152;9.282;2023-06-26T00:04:37;17.60;99.90
19968;DHT22;10145;49.152;9.282;2023-06-26T00:07:04;17.50;99.90
19968;DHT22;10145;49.152;9.282;2023-06-26T00:09:30;17.50;99.90
19968;DHT22;10145;49.152;9.282;2023-06-26T00:11:55;17.50;99.90
19968;DHT22;10145;49.152;9.282;2023-06-26T00:14:21;17.40;99.90
19968;DHT22;10145;49.152;9.282;2023-06-26T00:16:47;17.40;99.90
19968;DHT22;10145;49.152;9.282;2023-06-26T00:19:15;17.40;99.90
19968;DHT22;10145;49.152;9.282;2023-06-26T00:21:40;17.40;99.90
19968;DHT22;10145;49.152;9.282;2023-06-26T00:24:06;17.30;99.90
19968;DHT22;10145;49.152;9.282;2023-06-26T00:26:31;17.30;99.90
19968;DHT22;10145;49.152;9.282;2023-06-26T00:28:57;17.30;99.90
19968;DHT22;10145;49.152;9.282;2023-06-26T00:31:22;17.30;99.90
19968;DHT22;10145;49.152;9.282;2023-06-26T00:33:48;17.30;99.90
19968;DHT22;10145;49.152;9.282;2023-06-26T00:36:13;17.30;99.90
19968;DHT22;10145;49.152;9.282;2023-06-26T00:38:39;17.20;99.90
19968;DHT22;10145;49.152;9.282;2023-06-26T00:41:05;17.20;99.90
19968;DHT22;10145;49.152;9.282;2023-06-26T00:43:37;17.20;99.90
19968;DHT22;10145;49.152;9.282;2023-06-26T00:46:02;17.10;99.90
19968;DHT22;10145;49.152;9.282;2023-06-26T00:48:29;17.10;99.90
19968;DHT22;10145;49.152;9.282;2023-06-26T00:50:54;17.10;99.90
19968;DHT22;10145;49.152;9.282;2023-06-26T00:53:20;17.10;99.90
19968;DHT22;10145;49.152;9.282;2023-06-26T00:55:47;17.10;99.90
19968;DHT22;10145;49.152;9.282;2023-06-26T00:58:12;17.10;99.90
19968;DHT22;10145;49.152;9.282;2023-06-26T01:00:40;17.10;99.90
19968;DHT22;10145;49.152;9.282;2023-06-26T01:03:05;17.10;99.90
19968;DHT22;10145;49.152;9.282;2023-06-26T01:05:31;17.00;99.90
19968;DHT22;10145;49.152;9.282;2023-06-26T01:07:57;17.00;99.90
19968;DHT22;10145;49.152;9.282;2023-06-26T01:10:24;17.00;99.90
19968;DHT22;10145;49.152;9.282;2023-06-26T01:12:50;17.00;99.90
19968;DHT22;10145;49.152;9.282;2023-06-26T01:15:15;16.90;99.90
19968;DHT22;10145;49.152;9.282;2023-06-26T01:17:41;16.90;99.90
19968;DHT22;10145;49.152;9.282;2023-06-26T01:20:11;16.90;99.90
19968;DHT22;10145;49.152;9.282;2023-06-26T01:27:50;16.80;99.90
19968;DHT22;10145;49.152;9.282;2023-06-26T01:30:19;16.80;99.90
19968;DHT22;10145;49.152;9.282;2023-06-26T01:32:45;16.80;99.90
19968;DHT22;10145;49.152;9.282;2023-06-26T01:35:11;16.70;99.90
19968;DHT22;10145;49.152;9.282;2023-06-26T01:37:37;16.70;99.90
19968;DHT22;10145;49.152;9.282;2023-06-26T01:40:03;16.70;99.90
19968;DHT22;10145;49.152;9.282;2023-06-26T01:42:32;16.70;99.90
19968;DHT22;10145;49.152;9.282;2023-06-26T01:45:03;16.70;99.90
19968;DHT22;10145;49.152;9.282;2023-06-26T01:47:31;16.60;99.90
19968;DHT22;10145;49.152;9.282;2023-06-26T01:50:15;16.60;99.90
19968;DHT22;10145;49.152;9.282;2023-06-26T01:52:46;16.60;99.90
19968;DHT22;10145;49.152;9.282;2023-06-26T01:55:35;16.50;99.90
19968;DHT22;10145;49.152;9.282;2023-06-26T01:58:04;16.50;99.90
19968;DHT22;10145;49.152;9.282;2023-06-26T02:00:31;16.50;99.90
19968;DHT22;10145;49.152;9.282;2023-06-26T02:02:57;16.40;99.90
19968;DHT22;10145;49.152;9.282;2023-06-26T02:05:23;16.40;99.90
19968;DHT22;10145;49.152;9.282;2023-06-26T02:07:49;16.30;99.90
19968;DHT22;10145;49.152;9.282;2023-06-26T02:10:16;16.30;99.90
19968;DHT22;10145;49.152;9.282;2023-06-26T02:12:44;16.30;99.90
19968;DHT22;10145;49.152;9.282;2023-06-26T02:15:09;16.30;99.90
19968;DHT22;10145;49.152;9.282;2023-06-26T02:17:35;16.30;99.90
19968;DHT22;10145;49.152;9.282;2023-06-26T02:20:00;16.20;99.90
19968;DHT22;10145;49.152;9.282;2023-06-26T02:22:26;16.20;99.90
19968;DHT22;10145;49.152;9.282;2023-06-26T02:24:53;16.10;99.90
19968;DHT22;10145;49.152;9.282;2023-06-26T02:27:19;16.00;99.90
19968;DHT22;10145;49.152;9.282;2023-06-26T02:29:44;16.00;99.90
19968;DHT22;10145;49.152;9.282;2023-06-26T02:32:10;16.00;99.90
19968;DHT22;10145;49.152;9.282;2023-06-26T02:34:36;15.90;99.90
19968;DHT22;10145;49.152;9.282;2023-06-26T02:37:01;15.90;99.90
19968;DHT22;10145;49.152;9.282;2023-06-26T02:39:27;15.80;99.90
19968;DHT22;10145;49.152;9.282;2023-06-26T02:41:53;15.70;99.90
19968;DHT22;10145;49.152;9.282;2023-06-26T02:44:18;15.80;99.90
19968;DHT22;10145;49.152;9.282;2023-06-26T02:46:44;15.70;99.90
19968;DHT22;10145;49.152;9.282;2023-06-26T02:49:10;15.60;99.90
19968;DHT22;10145;49.152;9.282;2023-06-26T02:51:35;15.60;99.90
19968;DHT22;10145;49.152;9.282;2023-06-26T02:54:01;15.70;99.90
19968;DHT22;10145;49.152;9.282;2023-06-26T02:56:27;15.60;99.90
19968;DHT22;10145;49.152;9.282;2023-06-26T02:58:56;15.60;99.90
19968;DHT22;10145;49.152;9.282;2023-06-26T03:01:21;15.70;99.90
19968;DHT22;10145;49.152;9.282;2023-06-26T03:03:47;15.60;99.90
19968;DHT22;10145;49.152;9.282;2023-06-26T03:06:14;15.60;99.90
19968;DHT22;10145;49.152;9.282;2023-06-26T03:08:40;15.50;99.90
19968;DHT22;10145;49.152;9.282;2023-06-26T03:11:06;15.50;99.90
19968;DHT22;10145;49.152;9.282;2023-06-26T03:13:36;15.40;99.90
19968;DHT22;10145;49.152;9.282;2023-06-26T03:16:03;15.40;99.90
19968;DHT22;10145;49.152;9.282;2023-06-26T03:18:28;15.30;99.90
19968;DHT22;10145;49.152;9.282;2023-06-26T03:20:56;15.30;99.90
19968;DHT22;10145;49.152;9.282;2023-06-26T03:23:22;15.30;99.90
19968;DHT22;10145;49.152;9.282;2023-06-26T03:25:48;15.40;99.90
19968;DHT22;10145;49.152;9.282;2023-06-26T03:28:14;15.30;99.90
19968;DHT22;10145;49.152;9.282;2023-06-26T03:30:40;15.40;99.90
19968;DHT22;10145;49.152;9.282;2023-06-26T03:33:05;15.40;99.90
19968;DHT22;10145;49.152;9.282;2023-06-26T03:35:31;15.30;99.90
19968;DHT22;10145;49.152;9.282;2023-06-26T03:37:57;15.30;99.90
19968;DHT22;10145;49.152;9.282;2023-06-26T03:40:23;15.30;99.90
19968;DHT22;10145;49.152;9.282;2023-06-26T03:42:48;15.30;99.90
19968;DHT22;10145;49.152;9.282;2023-06-26T03:45:14;15.30;99.90
19968;DHT22;10145;49.152;9.282;2023-06-26T03:47:39;15.20;99.90
19968;DHT22;10145;49.152;9.282;2023-06-26T03:50:05;15.30;99.90
19968;DHT22;10145;49.152;9.282;2023-06-26T03:52:31;15.20;99.90
19968;DHT22;10145;49.152;9.282;2023-06-26T03:54:57;15.20;99.90
19968;DHT22;10145;49.152;9.282;2023-06-26T03:57:23;15.20;99.90
19968;DHT22;10145;49.152;9.282;2023-06-26T03:59:49;15.20;99.90
19968;DHT22;10145;49.152;9.282;2023-06-26T04:02:14;15.20;99.90
19968;DHT22;10145;49.152;9.282;2023-06-26T04:04:40;15.20;99.90
19968;DHT22;10145;49.152;9.282;2023-06-26T04:07:05;15.30;99.90
19968;DHT22;10145;49.152;9.282;2023-06-26T04:09:31;15.30;99.90
19968;DHT22;10145;49.152;9.282;2023-06-26T04:11:57;15.40;99.90
19968;DHT22;10145;49.152;9.282;2023-06-26T04:14:22;15.40;99.90
19968;DHT22;10145;49.152;9.282;2023-06-26T04:16:48;15.50;99.90
19968;DHT22;10145;49.152;9.282;2023-06-26T04:19:13;15.50;99.90
19968;DHT22;10145;49.152;9.282;2023-06-26T04:21:39;15.50;99.90
19968;DHT22;10145;49.152;9.282;2023-06-26T04:24:05;15.50;99.90
19968;DHT22;10145;49.152;9.282;2023-06-26T04:26:30;15.60;99.90
19968;DHT22;10145;49.152;9.282;2023-06-26T04:28:56;15.60;99.90
19968;DHT22;10145;49.152;9.282;2023-06-26T04:31:22;15.70;99.90
19968;DHT22;10145;49.152;9.282;2023-06-26T04:33:47;15.70;99.90
19968;DHT22;10145;49.152;9.282;2023-06-26T04:36:19;15.80;99.90
19968;DHT22;10145;49.152;9.282;2023-06-26T04:38:44;15.80;99.90
19968;DHT22;10145;49.152;9.282;2023-06-26T04:41:10;15.80;99.90
19968;DHT22;10145;49.152;9.282;2023-06-26T04:43:35;15.90;99.90
19968;DHT22;10145;49.152;9.282;2023-06-26T04:46:02;15.90;99.90
19968;DHT22;10145;49.152;9.282;2023-06-26T04:48:28;16.00;99.90
19968;DHT22;10145;49.152;9.282;2023-06-26T04:50:56;16.00;99.90
19968;DHT22;10145;49.152;9.282;2023-06-26T04:53:23;16.10;99.90
19968;DHT22;10145;49.152;9.282;2023-06-26T04:55:52;16.10;99.90
19968;DHT22;10145;49.152;9.282;2023-06-26T04:58:19;16.20;99.90
19968;DHT22;10145;49.152;9.282;2023-06-26T05:00:44;16.30;99.90
19968;DHT22;10145;49.152;9.282;2023-06-26T05:03:12;16.30;99.90
19968;DHT22;10145;49.152;9.282;2023-06-26T05:05:37;16.40;99.90
19968;DHT22;10145;49.152;9.282;2023-06-26T05:08:23;16.50;99.90
19968;DHT22;10145;49.152;9.282;2023-06-26T05:10:49;16.50;99.90
19968;DHT22;10145;49.152;9.282;2023-06-26T05:13:15;16.70;99.90
19968;DHT22;10145;49.152;9.282;2023-06-26T05:15:43;16.80;99.90
19968;DHT22;10145;49.152;9.282;2023-06-26T05:18:09;16.90;99.90
19968;DHT22;10145;49.152;9.282;2023-06-26T05:20:35;17.00;99.90
19968;DHT22;10145;49.152;9.282;2023-06-26T05:23:04;17.10;99.90
19968;DHT22;10145;49.152;9.282;2023-06-26T05:25:31;17.20;99.90
19968;DHT22;10145;49.152;9.282;2023-06-26T05:27:57;17.30;99.90
19968;DHT22;10145;49.152;9.282;2023-06-26T05:30:24;17.40;99.90
19968;DHT22;10145;49.152;9.282;2023-06-26T05:32:53;17.50;99.90
19968;DHT22;10145;49.152;9.282;2023-06-26T05:35:20;17.60;99.90
19968;DHT22;10145;49.152;9.282;2023-06-26T05:37:49;17.70;99.90
19968;DHT22;10145;49.152;9.282;2023-06-26T05:40:18;17.80;99.90
19968;DHT22;10145;49.152;9.282;2023-06-26T05:42:44;18.00;99.90
19968;DHT22;10145;49.152;9.282;2023-06-26T05:45:10;18.10;99.90
19968;DHT22;10145;49.152;9.282;2023-06-26T05:47:36;18.20;99.90
19968;DHT22;10145;49.152;9.282;2023-06-26T05:50:02;18.30;99.90
19968;DHT22;10145;49.152;9.282;2023-06-26T05:52:28;18.40;99.90
19968;DHT22;10145;49.152;9.282;2023-06-26T05:54:55;18.50;99.90
19968;DHT22;10145;49.152;9.282;2023-06-26T05:57:24;18.60;99.90
19968;DHT22;10145;49.152;9.282;2023-06-26T05:59:50;18.60;99.90
19968;DHT22;10145;49.152;9.282;2023-06-26T06:02:16;18.80;99.90
19968;DHT22;10145;49.152;9.282;2023-06-26T06:04:42;18.90;99.90
19968;DHT22;10145;49.152;9.282;2023-06-26T06:07:07;19.10;99.90
19968;DHT22;10145;49.152;9.282;2023-06-26T06:09:33;19.20;99.90
19968;DHT22;10145;49.152;9.282;2023-06-26T06:11:59;19.40;99.90
19968;DHT22;10145;49.152;9.282;2023-06-26T06:14:25;19.40;99.90
19968;DHT22;10145;49.152;9.282;2023-06-26T06:16:50;19.50;99.90
19968;DHT22;10145;49.152;9.282;2023-06-26T06:19:16;19.60;99.90
19968;DHT22;10145;49.152;9.282;2023-06-26T06:21:41;19.70;99.90
19968;DHT22;10145;49.152;9.282;2023-06-26T06:24:08;19.80;99.90
19968;DHT22;10145;49.152;9.282;2023-06-26T06:26:35;20.00;99.90
19968;DHT22;10145;49.152;9.282;2023-06-26T06:29:00;20.00;99.90
19968;DHT22;10145;49.152;9.282;2023-06-26T06:31:26;20.10;99.90
19968;DHT22;10145;49.152;9.282;2023-06-26T06:33:54;20.20;99.90
19968;DHT22;10145;49.152;9.282;2023-06-26T06:36:19;20.30;99.90
19968;DHT22;10145;49.152;9.282;2023-06-26T06:38:45;20.40;99.90
19968;DHT22;10145;49.152;9.282;2023-06-26T06:41:11;20.60;99.90
19968;DHT22;10145;49.152;9.282;2023-06-26T06:43:36;20.80;99.90
19968;DHT22;10145;49.152;9.282;2023-06-26T06:46:02;21.00;99.90
19968;DHT22;10145;49.152;9.282;2023-06-26T06:48:28;21.10;99.90
19968;DHT22;10145;49.152;9.282;2023-06-26T06:50:53;21.30;99.90
19968;DHT22;10145;49.152;9.282;2023-06-26T06:53:19;21.30;99.90
19968;DHT22;10145;49.152;9.282;2023-06-26T06:55:46;21.50;99.90
19968;DHT22;10145;49.152;9.282;2023-06-26T06:58:11;21.70;99.90
19968;DHT22;10145;49.152;9.282;2023-06-26T07:00:37;21.90;99.90
19968;DHT22;10145;49.152;9.282;2023-06-26T07:03:02;22.10;99.70
19968;DHT22;10145;49.152;9.282;2023-06-26T07:05:29;22.30;99.60
19968;DHT22;10145;49.152;9.282;2023-06-26T07:07:55;22.60;98.30
19968;DHT22;10145;49.152;9.282;2023-06-26T07:10:20;22.70;97.90
19968;DHT22;10145;49.152;9.282;2023-06-26T07:12:46;23.00;97.60
19968;DHT22;10145;49.152;9.282;2023-06-26T07:15:12;23.10;97.10
19968;DHT22;10145;49.152;9.282;2023-06-26T07:17:38;23.20;95.30
19968;DHT22;10145;49.152;9.282;2023-06-26T07:20:04;23.30;94.90
19968;DHT22;10145;49.152;9.282;2023-06-26T07:22:32;23.50;95.00
19968;DHT22;10145;49.152;9.282;2023-06-26T07:24:57;23.60;93.50
19968;DHT22;10145;49.152;9.282;2023-06-26T07:27:23;24.00;92.90
19968;DHT22;10145;49.152;9.282;2023-06-26T07:29:48;24.30;91.20
19968;DHT22;10145;49.152;9.282;2023-06-26T07:32:14;24.50;90.50
19968;DHT22;10145;49.152;9.282;2023-06-26T07:34:40;24.60;89.10
19968;DHT22;10145;49.152;9.282;2023-06-26T07:37:05;24.90;89.40
19968;DHT22;10145;49.152;9.282;2023-06-26T07:39:31;25.20;88.00
19968;DHT22;10145;49.152;9.282;2023-06-26T07:41:56;25.50;87.00
19968;DHT22;10145;49.152;9.282;2023-06-26T07:44:24;25.50;85.90
19968;DHT22;10145;49.152;9.282;2023-06-26T07:46:50;25.60;85.50
19968;DHT22;10145;49.152;9.282;2023-06-26T07:49:15;25.80;84.50
19968;DHT22;10145;49.152;9.282;2023-06-26T07:51:41;26.00;83.90
19968;DHT22;10145;49.152;9.282;2023-06-26T07:54:06;26.20;82.20
19968;DHT22;10145;49.152;9.282;2023-06-26T07:56:51;26.40;83.40
19968;DHT22;10145;49.152;9.282;2023-06-26T07:59:17;26.50;82.60
19968;DHT22;10145;49.152;9.282;2023-06-26T08:01:43;26.80;80.70
19968;DHT22;10145;49.152;9.282;2023-06-26T08:04:08;26.80;80.40
19968;DHT22;10145;49.152;9.282;2023-06-26T08:06:36;26.90;79.40
19968;DHT22;10145;49.152;9.282;2023-06-26T08:09:06;26.90;79.80
19968;DHT22;10145;49.152;9.282;2023-06-26T08:11:33;27.10;80.70
19968;DHT22;10145;49.152;9.282;2023-06-26T08:13:58;27.40;80.40
19968;DHT22;10145;49.152;9.282;2023-06-26T08:16:24;27.40;77.80
19968;DHT22;10145;49.152;9.282;2023-06-26T08:18:50;27.60;79.70
19968;DHT22;10145;49.152;9.282;2023-06-26T08:21:16;27.80;78.50
19968;DHT22;10145;49.152;9.282;2023-06-26T08:23:41;27.90;77.50
19968;DHT22;10145;49.152;9.282;2023-06-26T08:26:07;28.00;77.50
19968;DHT22;10145;49.152;9.282;2023-06-26T08:28:32;27.90;77.80
19968;DHT22;10145;49.152;9.282;2023-06-26T08:30:58;28.00;78.50
19968;DHT22;10145;49.152;9.282;2023-06-26T08:33:25;28.30;77.80
19968;DHT22;10145;49.152;9.282;2023-06-26T08:35:50;28.60;76.00
19968;DHT22;10145;49.152;9.282;2023-06-26T08:38:16;28.70;75.70
19968;DHT22;10145;49.152;9.282;2023-06-26T08:40:41;29.00;74.80
19968;DHT22;10145;49.152;9.282;2023-06-26T08:43:07;29.10;74.70
19968;DHT22;10145;49.152;9.282;2023-06-26T08:45:33;29.20;73.90
19968;DHT22;10145;49.152;9.282;2023-06-26T08:48:00;29.30;73.30
19968;DHT22;10145;49.152;9.282;2023-06-26T08:50:30;29.20;72.50
19968;DHT22;10145;49.152;9.282;2023-06-26T08:53:09;29.00;73.30
19968;DHT22;10145;49.152;9.282;2023-06-26T08:55:41;29.20;71.80
19968;DHT22;10145;49.152;9.282;2023-06-26T08:58:07;29.30;72.40
19968;DHT22;10145;49.152;9.282;2023-06-26T09:00:33;29.60;72.30
19968;DHT22;10145;49.152;9.282;2023-06-26T09:02:59;29.90;71.20
19968;DHT22;10145;49.152;9.282;2023-06-26T09:05:26;29.90;70.60
19968;DHT22;10145;49.152;9.282;2023-06-26T09:07:52;30.10;69.60
19968;DHT22;10145;49.152;9.282;2023-06-26T09:10:21;30.00;69.10
19968;DHT22;10145;49.152;9.282;2023-06-26T09:12:47;30.00;68.50
19968;DHT22;10145;49.152;9.282;2023-06-26T09:15:14;30.00;69.00
19968;DHT22;10145;49.152;9.282;2023-06-26T09:17:40;30.10;67.80
19968;DHT22;10145;49.152;9.282;2023-06-26T09:20:07;30.20;68.10
19968;DHT22;10145;49.152;9.282;2023-06-26T09:22:36;30.30;68.20
19968;DHT22;10145;49.152;9.282;2023-06-26T09:25:03;30.40;67.50
19968;DHT22;10145;49.152;9.282;2023-06-26T09:27:29;30.50;68.10
19968;DHT22;10145;49.152;9.282;2023-06-26T09:29:55;30.60;67.20
19968;DHT22;10145;49.152;9.282;2023-06-26T09:32:24;30.80;66.90
19968;DHT22;10145;49.152;9.282;2023-06-26T09:34:52;30.90;66.20
19968;DHT22;10145;49.152;9.282;2023-06-26T09:37:19;31.00;65.80
19968;DHT22;10145;49.152;9.282;2023-06-26T09:39:45;31.10;65.40
19968;DHT22;10145;49.152;9.282;2023-06-26T09:42:13;31.20;67.10
19968;DHT22;10145;49.152;9.282;2023-06-26T09:44:46;31.30;65.20
19968;DHT22;10145;49.152;9.282;2023-06-26T09:47:12;31.40;65.20
19968;DHT22;10145;49.152;9.282;2023-06-26T09:49:42;31.20;65.40
19968;DHT22;10145;49.152;9.282;2023-06-26T09:52:08;31.10;65.20
19968;DHT22;10145;49.152;9.282;2023-06-26T09:54:34;30.90;65.80
19968;DHT22;10145;49.152;9.282;2023-06-26T09:57:08;30.90;66.20
19968;DHT22;10145;49.152;9.282;2023-06-26T09:59:35;31.10;67.60
19968;DHT22;10145;49.152;9.282;2023-06-26T10:02:00;31.40;66.70
19968;DHT22;10145;49.152;9.282;2023-06-26T10:04:26;31.50;67.00
19968;DHT22;10145;49.152;9.282;2023-06-26T10:06:55;31.80;64.80
19968;DHT22;10145;49.152;9.282;2023-06-26T10:09:22;31.80;65.70
19968;DHT22;10145;49.152;9.282;2023-06-26T10:12:06;32.00;64.50
19968;DHT22;10145;49.152;9.282;2023-06-26T10:14:37;32.20;62.80
19968;DHT22;10145;49.152;9.282;2023-06-26T10:17:05;32.30;62.80
19968;DHT22;10145;49.152;9.282;2023-06-26T10:19:33;32.20;63.90
19968;DHT22;10145;49.152;9.282;2023-06-26T10:22:00;32.20;62.90
19968;DHT22;10145;49.152;9.282;2023-06-26T10:24:29;32.10;63.50
19968;DHT22;10145;49.152;9.282;2023-06-26T10:29:57;32.00;65.50
19968;DHT22;10145;49.152;9.282;2023-06-26T10:32:26;32.10;65.60
19968;DHT22;10145;49.152;9.282;2023-06-26T10:34:53;31.60;65.60
19968;DHT22;10145;49.152;9.282;2023-06-26T10:37:20;31.20;66.60
19968;DHT22;10145;49.152;9.282;2023-06-26T10:42:12;31.30;66.40
19968;DHT22;10145;49.152;9.282;2023-06-26T10:44:43;31.20;67.00
19968;DHT22;10145;49.152;9.282;2023-06-26T10:47:09;31.00;67.30
19968;DHT22;10145;49.152;9.282;2023-06-26T10:49:36;31.40;66.90
19968;DHT22;10145;49.152;9.282;2023-06-26T10:52:02;31.80;68.10
19968;DHT22;10145;49.152;9.282;2023-06-26T10:54:29;32.20;66.80
19968;DHT22;10145;49.152;9.282;2023-06-26T10:56:56;32.50;65.60
19968;DHT22;10145;49.152;9.282;2023-06-26T10:59:23;32.30;67.00
19968;DHT22;10145;49.152;9.282;2023-06-26T11:01:59;31.80;65.90
19968;DHT22;10145;49.152;9.282;2023-06-26T11:04:51;31.40;66.90
19968;DHT22;10145;49.152;9.282;2023-06-26T11:07:22;30.90;68.40
19968;DHT22;10145;49.152;9.282;2023-06-26T11:10:08;30.60;69.30
19968;DHT22;10145;49.152;9.282;2023-06-26T11:15:11;29.90;71.80
19968;DHT22;10145;49.152;9.282;2023-06-26T11:17:37;29.60;72.00
19968;DHT22;10145;49.152;9.282;2023-06-26T11:20:07;29.70;72.50
19968;DHT22;10145;49.152;9.282;2023-06-26T11:22:41;30.10;72.70
19968;DHT22;10145;49.152;9.282;2023-06-26T11:25:08;30.80;72.10
19968;DHT22;10145;49.152;9.282;2023-06-26T11:27:44;31.00;70.70
19968;DHT22;10145;49.152;9.282;2023-06-26T11:30:11;31.10;71.00
19968;DHT22;10145;49.152;9.282;2023-06-26T11:32:37;31.20;71.50
19968;DHT22;10145;49.152;9.282;2023-06-26T11:35:04;31.50;69.90
19968;DHT22;10145;49.152;9.282;2023-06-26T11:37:30;31.80;69.70
19968;DHT22;10145;49.152;9.282;2023-06-26T11:39:56;31.40;69.10
19968;DHT22;10145;49.152;9.282;2023-06-26T11:42:24;30.80;70.70
19968;DHT22;10145;49.152;9.282;2023-06-26T11:44:53;31.00;71.50
19968;DHT22;10145;49.152;9.282;2023-06-26T11:47:20;31.20;69.80
19968;DHT22;10145;49.152;9.282;2023-06-26T11:49:47;31.80;69.60
19968;DHT22;10145;49.152;9.282;2023-06-26T11:52:14;32.00;68.40
19968;DHT22;10145;49.152;9.282;2023-06-26T11:54:40;32.30;67.90
19968;DHT22;10145;49.152;9.282;2023-06-26T11:57:06;32.60;67.60
19968;DHT22;10145;49.152;9.282;2023-06-26T11:59:38;32.60;67.00
19968;DHT22;10145;49.152;9.282;2023-06-26T12:02:10;32.50;68.30
19968;DHT22;10145;49.152;9.282;2023-06-26T12:04:40;32.60;67.60
19968;DHT22;10145;49.152;9.282;2023-06-26T12:07:07;32.80;67.80
19968;DHT22;10145;49.152;9.282;2023-06-26T12:09:37;32.50;67.50
19968;DHT22;10145;49.152;9.282;2023-06-26T12:12:04;32.50;66.60
19968;DHT22;10145;49.152;9.282;2023-06-26T12:14:30;32.30;67.40
19968;DHT22;10145;49.152;9.282;2023-06-26T12:17:04;32.30;68.10
19968;DHT22;10145;49.152;9.282;2023-06-26T12:19:30;32.30;68.90
19968;DHT22;10145;49.152;9.282;2023-06-26T12:21:55;32.20;68.70
19968;DHT22;10145;49.152;9.282;2023-06-26T12:24:23;32.70;68.10
19968;DHT22;10145;49.152;9.282;2023-06-26T12:26:54;33.10;66.40
19968;DHT22;10145;49.152;9.282;2023-06-26T12:29:28;33.30;66.10
19968;DHT22;10145;49.152;9.282;2023-06-26T12:31:54;33.00;68.00
19968;DHT22;10145;49.152;9.282;2023-06-26T12:34:25;33.00;68.40
19968;DHT22;10145;49.152;9.282;2023-06-26T12:36:51;33.20;67.60
19968;DHT22;10145;49.152;9.282;2023-06-26T12:39:19;33.40;66.60
19968;DHT22;10145;49.152;9.282;2023-06-26T12:41:46;33.40;66.40
19968;DHT22;10145;49.152;9.282;2023-06-26T12:44:29;33.60;67.00
19968;DHT22;10145;49.152;9.282;2023-06-26T12:46:59;33.30;66.40
19968;DHT22;10145;49.152;9.282;2023-06-26T12:49:36;33.60;66.40
19968;DHT22;10145;49.152;9.282;2023-06-26T12:52:05;32.90;64.60
19968;DHT22;10145;49.152;9.282;2023-06-26T12:54:31;32.20;67.60
19968;DHT22;10145;49.152;9.282;2023-06-26T12:56:58;31.70;68.20
19968;DHT22;10145;49.152;9.282;2023-06-26T12:59:23;31.70;68.30
19968;DHT22;10145;49.152;9.282;2023-06-26T13:01:49;31.70;67.40
19968;DHT22;10145;49.152;9.282;2023-06-26T13:04:15;31.70;67.70
19968;DHT22;10145;49.152;9.282;2023-06-26T13:06:40;32.00;67.40
19968;DHT22;10145;49.152;9.282;2023-06-26T13:09:06;32.10;67.90
19968;DHT22;10145;49.152;9.282;2023-06-26T13:11:32;32.30;68.00
19968;DHT22;10145;49.152;9.282;2023-06-26T13:13:58;32.20;65.40
19968;DHT22;10145;49.152;9.282;2023-06-26T13:16:24;32.50;65.80
19968;DHT22;10145;49.152;9.282;2023-06-26T13:18:50;32.90;64.80
19968;DHT22;10145;49.152;9.282;2023-06-26T13:21:16;33.40;64.80
19968;DHT22;10145;49.152;9.282;2023-06-26T13:23:43;33.90;63.20
19968;DHT22;10145;49.152;9.282;2023-06-26T13:26:09;34.10;62.20
19968;DHT22;10145;49.152;9.282;2023-06-26T13:28:36;34.50;61.60
19968;DHT22;10145;49.152;9.282;2023-06-26T13:31:02;35.10;61.60
19968;DHT22;10145;49.152;9.282;2023-06-26T13:33:28;35.00;57.70
19968;DHT22;10145;49.152;9.282;2023-06-26T13:35:53;35.10;57.10
19968;DHT22;10145;49.152;9.282;2023-06-26T13:38:20;35.40;57.20
19968;DHT22;10145;49.152;9.282;2023-06-26T13:40:53;35.00;57.10
19968;DHT22;10145;49.152;9.282;2023-06-26T13:43:20;34.70;58.00
19968;DHT22;10145;49.152;9.282;2023-06-26T13:45:46;34.20;58.90
19968;DHT22;10145;49.152;9.282;2023-06-26T13:48:11;35.00;57.60
19968;DHT22;10145;49.152;9.282;2023-06-26T13:50:37;35.50;56.60
19968;DHT22;10145;49.152;9.282;2023-06-26T13:53:03;35.60;55.20
19968;DHT22;10145;49.152;9.282;2023-06-26T13:55:28;35.60;54.80
19968;DHT22;10145;49.152;9.282;2023-06-26T13:57:54;34.40;57.40
19968;DHT22;10145;49.152;9.282;2023-06-26T14:00:21;33.50;58.20
19968;DHT22;10145;49.152;9.282;2023-06-26T14:02:47;33.50;58.70
19968;DHT22;10145;49.152;9.282;2023-06-26T14:05:13;33.60;57.30
19968;DHT22;10145;49.152;9.282;2023-06-26T14:07:39;33.40;58.20
19968;DHT22;10145;49.152;9.282;2023-06-26T14:10:05;33.50;56.90
19968;DHT22;10145;49.152;9.282;2023-06-26T14:12:31;33.70;57.10
19968;DHT22;10145;49.152;9.282;2023-06-26T14:14:57;33.90;57.70
19968;DHT22;10145;49.152;9.282;2023-06-26T14:17:23;34.70;55.00
19968;DHT22;10145;49.152;9.282;2023-06-26T14:19:51;35.40;55.70
19968;DHT22;10145;49.152;9.282;2023-06-26T14:22:17;34.90;54.40
19968;DHT22;10145;49.152;9.282;2023-06-26T14:24:43;34.90;53.80
19968;DHT22;10145;49.152;9.282;2023-06-26T14:27:08;34.80;53.50
19968;DHT22;10145;49.152;9.282;2023-06-26T14:29:35;34.60;53.90
19968;DHT22;10145;49.152;9.282;2023-06-26T14:32:00;35.20;54.60
19968;DHT22;10145;49.152;9.282;2023-06-26T14:34:26;35.90;52.60
19968;DHT22;10145;49.152;9.282;2023-06-26T14:36:51;36.10;51.20
19968;DHT22;10145;49.152;9.282;2023-06-26T14:39:17;36.00;51.30
19968;DHT22;10145;49.152;9.282;2023-06-26T14:41:43;36.20;52.10
19968;DHT22;10145;49.152;9.282;2023-06-26T14:44:08;36.50;51.50
19968;DHT22;10145;49.152;9.282;2023-06-26T14:46:36;37.00;52.30
19968;DHT22;10145;49.152;9.282;2023-06-26T14:49:03;37.40;50.00
19968;DHT22;10145;49.152;9.282;2023-06-26T14:51:28;37.70;48.10
19968;DHT22;10145;49.152;9.282;2023-06-26T14:53:54;37.60;49.10
19968;DHT22;10145;49.152;9.282;2023-06-26T14:56:19;37.10;49.10
19968;DHT22;10145;49.152;9.282;2023-06-26T14:58:45;36.30;49.20
19968;DHT22;10145;49.152;9.282;2023-06-26T15:01:14;34.80;50.60
19968;DHT22;10145;49.152;9.282;2023-06-26T15:03:47;34.10;53.10
19968;DHT22;10145;49.152;9.282;2023-06-26T15:06:13;33.70;53.20
19968;DHT22;10145;49.152;9.282;2023-06-26T15:08:38;34.30;52.50
19968;DHT22;10145;49.152;9.282;2023-06-26T15:11:04;34.90;51.20
19968;DHT22;10145;49.152;9.282;2023-06-26T15:13:30;35.20;51.70
19968;DHT22;10145;49.152;9.282;2023-06-26T15:15:55;35.40;49.70
19968;DHT22;10145;49.152;9.282;2023-06-26T15:18:21;34.60;51.10
19968;DHT22;10145;49.152;9.282;2023-06-26T15:20:46;33.70;52.30
19968;DHT22;10145;49.152;9.282;2023-06-26T15:23:12;33.30;53.40
19968;DHT22;10145;49.152;9.282;2023-06-26T15:25:38;32.80;53.90
19968;DHT22;10145;49.152;9.282;2023-06-26T15:28:04;31.80;55.00
19968;DHT22;10145;49.152;9.282;2023-06-26T15:30:30;31.80;55.60
19968;DHT22;10145;49.152;9.282;2023-06-26T15:32:56;32.20;55.80
19968;DHT22;10145;49.152;9.282;2023-06-26T15:35:21;32.70;54.70
19968;DHT22;10145;49.152;9.282;2023-06-26T15:37:47;32.00;54.60
19968;DHT22;10145;49.152;9.282;2023-06-26T15:40:13;31.40;55.50
19968;DHT22;10145;49.152;9.282;2023-06-26T15:42:46;30.90;55.90